Grand Junction, CO

3:26 AM MST on December 11, 2016 (GMT -0700)
Poplar Drive | | Change Station

Elev 4603 ft 39.08 °N, 108.58 °W | Updated 11 seconds ago

Overcast
Overcast
32.0 °F
Feels Like 32 °F
N
0.0
Wind Variable Wind from SW
Gusts 0.0 mph

Today
High -- | Low -- °F
--% Chance of Precip.
Yesterday
High -- | Low -- °F
Precip. -- in
Pressure 29.90 in
Visibility 10.0 miles
Clouds Overcast 7000 ft
Windchill 32 °F
Dew Point 23 °F
Humidity 68%
Rainfall 0.00 in
Snow Depth Not available.
7:23 AM 4:51 PM
Waxing Gibbous, 90% visible
METAR KGJT 110953Z AUTO 06003KT 10SM OVC070 M01/M03 A2988 RMK AO2 SLP124 T10061028
Pressure 29.90 in
Visibility 10.0 miles
Clouds Overcast 7000 ft
Windchill 32 °F
Dew Point 23 °F
Humidity 68%
Rainfall 0.00 in
Snow Depth Not available.
7:23 AM 4:51 PM
Waxing Gibbous, 90% visible
METAR KGJT 110953Z AUTO 06003KT 10SM OVC070 M01/M03 A2988 RMK AO2 SLP124 T10061028

10-Day Weather Forecast

Almanac

Astronomy

Dec. 11, 2016 Rise Set
Actual Time
Civil Twilight
Nautical Twilight
Astronomical Twilight
Moon
Length of Visible Light
Length of Day
Tomorrow will be .
, % of the Moon is Illuminated

Today's Extremes

State Highs State Lows

Community

WunderPhotos

Upload Photos

1,956,702 photos uploaded!

WunderBlog® & News

Nearby

Air Quality

  Air Quality AQ Index Pollutant
Not available.

Snow Depth

Station Depth Elevation

Earthquake Activity

City Distance Mag. Time & Date
Minimum magnitude displayed is 2.5.

Coastal Water Temperatures

Place Temperature

Stations

Nearby Weather Stations

Station Location Temp. Windchill Dew Point Humidity Wind Precip. Elev Updated Type
                   

Watches & Warnings

There are currently no watches in effect.